sensor_id;sensor_type;location;lat;lon;timestamp;P1;durP1;ratioP1;P2;durP2;ratioP2
80778;SDS011;70170;47.856;10.956;2023-07-31T00:00:26;2.60;;;1.60;;
80778;SDS011;70170;47.856;10.956;2023-07-31T00:02:52;2.63;;;1.60;;
80778;SDS011;70170;47.856;10.956;2023-07-31T00:05:17;2.83;;;1.80;;
80778;SDS011;70170;47.856;10.956;2023-07-31T00:07:43;3.88;;;2.03;;
80778;SDS011;70170;47.856;10.956;2023-07-31T00:10:08;8.85;;;2.20;;
80778;SDS011;70170;47.856;10.956;2023-07-31T00:12:34;3.40;;;1.90;;
80778;SDS011;70170;47.856;10.956;2023-07-31T00:14:59;3.67;;;2.13;;
80778;SDS011;70170;47.856;10.956;2023-07-31T00:17:24;3.40;;;2.00;;
80778;SDS011;70170;47.856;10.956;2023-07-31T00:19:49;6.78;;;1.95;;
80778;SDS011;70170;47.856;10.956;2023-07-31T00:22:15;2.67;;;2.10;;
80778;SDS011;70170;47.856;10.956;2023-07-31T00:24:41;3.92;;;2.13;;
80778;SDS011;70170;47.856;10.956;2023-07-31T00:27:06;5.32;;;1.70;;
80778;SDS011;70170;47.856;10.956;2023-07-31T00:29:31;4.45;;;2.15;;
80778;SDS011;70170;47.856;10.956;2023-07-31T00:31:57;2.72;;;2.00;;
80778;SDS011;70170;47.856;10.956;2023-07-31T00:34:22;4.28;;;1.90;;
80778;SDS011;70170;47.856;10.956;2023-07-31T00:36:47;3.33;;;2.05;;
80778;SDS011;70170;47.856;10.956;2023-07-31T00:39:13;9.18;;;2.55;;
80778;SDS011;70170;47.856;10.956;2023-07-31T00:41:38;3.70;;;2.13;;
80778;SDS011;70170;47.856;10.956;2023-07-31T00:44:04;2.53;;;1.90;;
80778;SDS011;70170;47.856;10.956;2023-07-31T00:46:29;2.40;;;2.20;;
80778;SDS011;70170;47.856;10.956;2023-07-31T00:48:54;6.88;;;2.40;;
80778;SDS011;70170;47.856;10.956;2023-07-31T00:51:20;6.82;;;2.15;;
80778;SDS011;70170;47.856;10.956;2023-07-31T00:53:45;3.58;;;2.45;;
80778;SDS011;70170;47.856;10.956;2023-07-31T00:56:12;2.63;;;2.05;;
80778;SDS011;70170;47.856;10.956;2023-07-31T00:58:37;2.90;;;2.20;;
80778;SDS011;70170;47.856;10.956;2023-07-31T01:01:03;3.97;;;2.10;;
80778;SDS011;70170;47.856;10.956;2023-07-31T01:03:28;3.58;;;2.05;;
80778;SDS011;70170;47.856;10.956;2023-07-31T01:08:50;4.97;;;2.70;;
80778;SDS011;70170;47.856;10.956;2023-07-31T01:11:28;5.80;;;2.28;;
80778;SDS011;70170;47.856;10.956;2023-07-31T01:13:55;2.75;;;2.38;;
80778;SDS011;70170;47.856;10.956;2023-07-31T01:16:22;5.03;;;2.70;;
80778;SDS011;70170;47.856;10.956;2023-07-31T01:18:47;6.93;;;2.42;;
80778;SDS011;70170;47.856;10.956;2023-07-31T01:21:20;2.60;;;2.10;;
80778;SDS011;70170;47.856;10.956;2023-07-31T01:27:06;3.25;;;2.08;;
80778;SDS011;70170;47.856;10.956;2023-07-31T01:29:45;5.40;;;2.47;;
80778;SDS011;70170;47.856;10.956;2023-07-31T01:32:14;5.43;;;2.55;;
80778;SDS011;70170;47.856;10.956;2023-07-31T01:34:42;4.38;;;2.50;;
80778;SDS011;70170;47.856;10.956;2023-07-31T01:37:09;6.00;;;2.70;;
80778;SDS011;70170;47.856;10.956;2023-07-31T01:39:34;4.53;;;2.58;;
80778;SDS011;70170;47.856;10.956;2023-07-31T01:41:59;6.20;;;2.35;;
80778;SDS011;70170;47.856;10.956;2023-07-31T01:44:25;2.70;;;2.20;;
80778;SDS011;70170;47.856;10.956;2023-07-31T01:46:50;2.05;;;1.90;;
80778;SDS011;70170;47.856;10.956;2023-07-31T01:49:15;4.28;;;2.35;;
80778;SDS011;70170;47.856;10.956;2023-07-31T01:51:41;2.35;;;2.00;;
80778;SDS011;70170;47.856;10.956;2023-07-31T01:54:06;5.32;;;2.20;;
80778;SDS011;70170;47.856;10.956;2023-07-31T01:56:31;4.50;;;2.53;;
80778;SDS011;70170;47.856;10.956;2023-07-31T01:58:57;3.35;;;2.40;;
80778;SDS011;70170;47.856;10.956;2023-07-31T02:01:22;5.20;;;2.30;;
80778;SDS011;70170;47.856;10.956;2023-07-31T02:03:47;2.85;;;1.80;;
80778;SDS011;70170;47.856;10.956;2023-07-31T02:06:13;6.07;;;2.30;;
80778;SDS011;70170;47.856;10.956;2023-07-31T02:08:38;6.22;;;1.98;;
80778;SDS011;70170;47.856;10.956;2023-07-31T02:11:03;3.53;;;2.20;;
80778;SDS011;70170;47.856;10.956;2023-07-31T02:13:29;8.40;;;2.83;;
80778;SDS011;70170;47.856;10.956;2023-07-31T02:15:54;5.10;;;2.00;;
80778;SDS011;70170;47.856;10.956;2023-07-31T02:18:19;5.15;;;2.38;;
80778;SDS011;70170;47.856;10.956;2023-07-31T02:20:51;2.75;;;2.15;;
80778;SDS011;70170;47.856;10.956;2023-07-31T02:23:19;3.58;;;2.10;;
80778;SDS011;70170;47.856;10.956;2023-07-31T02:25:45;3.47;;;2.20;;
80778;SDS011;70170;47.856;10.956;2023-07-31T02:28:10;9.90;;;2.95;;
80778;SDS011;70170;47.856;10.956;2023-07-31T02:30:36;2.67;;;1.95;;
80778;SDS011;70170;47.856;10.956;2023-07-31T02:33:02;3.47;;;2.28;;
80778;SDS011;70170;47.856;10.956;2023-07-31T02:35:27;5.57;;;2.65;;
80778;SDS011;70170;47.856;10.956;2023-07-31T02:37:52;2.22;;;2.03;;
80778;SDS011;70170;47.856;10.956;2023-07-31T02:40:18;5.32;;;2.30;;
80778;SDS011;70170;47.856;10.956;2023-07-31T02:42:43;6.25;;;2.55;;
80778;SDS011;70170;47.856;10.956;2023-07-31T02:45:08;7.78;;;2.50;;
80778;SDS011;70170;47.856;10.956;2023-07-31T02:47:34;3.63;;;2.00;;
80778;SDS011;70170;47.856;10.956;2023-07-31T02:49:59;3.28;;;2.45;;
80778;SDS011;70170;47.856;10.956;2023-07-31T02:52:25;6.43;;;2.42;;
80778;SDS011;70170;47.856;10.956;2023-07-31T02:54:50;3.28;;;2.30;;
80778;SDS011;70170;47.856;10.956;2023-07-31T02:57:15;3.97;;;2.55;;
80778;SDS011;70170;47.856;10.956;2023-07-31T02:59:41;2.83;;;2.40;;
80778;SDS011;70170;47.856;10.956;2023-07-31T03:02:06;8.32;;;2.80;;
80778;SDS011;70170;47.856;10.956;2023-07-31T03:04:32;4.78;;;2.67;;
80778;SDS011;70170;47.856;10.956;2023-07-31T03:06:57;6.25;;;2.95;;
80778;SDS011;70170;47.856;10.956;2023-07-31T03:09:22;9.30;;;2.95;;
80778;SDS011;70170;47.856;10.956;2023-07-31T03:11:48;4.95;;;2.75;;
80778;SDS011;70170;47.856;10.956;2023-07-31T03:14:13;5.93;;;2.83;;
80778;SDS011;70170;47.856;10.956;2023-07-31T03:16:45;4.43;;;2.83;;
80778;SDS011;70170;47.856;10.956;2023-07-31T03:19:10;6.75;;;3.00;;
80778;SDS011;70170;47.856;10.956;2023-07-31T03:21:35;3.72;;;2.72;;
80778;SDS011;70170;47.856;10.956;2023-07-31T03:24:00;5.93;;;3.20;;
80778;SDS011;70170;47.856;10.956;2023-07-31T03:26:26;4.10;;;2.97;;
80778;SDS011;70170;47.856;10.956;2023-07-31T03:28:51;4.70;;;3.15;;
80778;SDS011;70170;47.856;10.956;2023-07-31T03:31:16;7.22;;;3.45;;
80778;SDS011;70170;47.856;10.956;2023-07-31T03:33:42;6.00;;;3.78;;
80778;SDS011;70170;47.856;10.956;2023-07-31T03:36:07;6.60;;;3.53;;
80778;SDS011;70170;47.856;10.956;2023-07-31T03:38:33;4.45;;;3.60;;
80778;SDS011;70170;47.856;10.956;2023-07-31T03:40:58;7.22;;;3.72;;
80778;SDS011;70170;47.856;10.956;2023-07-31T03:43:24;5.70;;;3.70;;
80778;SDS011;70170;47.856;10.956;2023-07-31T03:45:50;7.18;;;3.22;;
80778;SDS011;70170;47.856;10.956;2023-07-31T03:48:15;9.02;;;4.25;;
80778;SDS011;70170;47.856;10.956;2023-07-31T03:50:41;6.10;;;3.90;;
80778;SDS011;70170;47.856;10.956;2023-07-31T03:53:06;9.82;;;3.80;;
80778;SDS011;70170;47.856;10.956;2023-07-31T03:55:32;6.82;;;4.30;;
80778;SDS011;70170;47.856;10.956;2023-07-31T03:57:57;4.95;;;4.03;;
80778;SDS011;70170;47.856;10.956;2023-07-31T04:00:22;10.05;;;3.90;;
80778;SDS011;70170;47.856;10.956;2023-07-31T04:02:48;8.68;;;3.90;;
80778;SDS011;70170;47.856;10.956;2023-07-31T04:05:13;8.38;;;4.50;;
80778;SDS011;70170;47.856;10.956;2023-07-31T04:07:38;6.47;;;3.75;;
80778;SDS011;70170;47.856;10.956;2023-07-31T04:10:04;9.90;;;3.90;;
80778;SDS011;70170;47.856;10.956;2023-07-31T04:12:29;8.40;;;3.70;;
80778;SDS011;70170;47.856;10.956;2023-07-31T04:14:55;3.40;;;3.05;;
80778;SDS011;70170;47.856;10.956;2023-07-31T04:17:20;5.75;;;3.60;;
80778;SDS011;70170;47.856;10.956;2023-07-31T04:19:46;9.27;;;3.47;;
80778;SDS011;70170;47.856;10.956;2023-07-31T04:22:11;5.50;;;3.33;;
80778;SDS011;70170;47.856;10.956;2023-07-31T04:24:36;6.15;;;3.38;;
80778;SDS011;70170;47.856;10.956;2023-07-31T04:27:01;4.05;;;3.10;;
80778;SDS011;70170;47.856;10.956;2023-07-31T04:29:27;6.60;;;3.35;;
80778;SDS011;70170;47.856;10.956;2023-07-31T04:31:52;7.75;;;3.22;;
80778;SDS011;70170;47.856;10.956;2023-07-31T04:34:17;4.82;;;3.60;;
80778;SDS011;70170;47.856;10.956;2023-07-31T04:36:43;9.40;;;3.35;;
80778;SDS011;70170;47.856;10.956;2023-07-31T04:39:08;8.48;;;2.70;;
80778;SDS011;70170;47.856;10.956;2023-07-31T04:41:33;6.50;;;3.10;;
80778;SDS011;70170;47.856;10.956;2023-07-31T04:43:59;8.23;;;2.90;;
80778;SDS011;70170;47.856;10.956;2023-07-31T04:46:24;3.13;;;2.40;;
80778;SDS011;70170;47.856;10.956;2023-07-31T04:48:50;3.83;;;2.40;;
80778;SDS011;70170;47.856;10.956;2023-07-31T04:51:15;3.47;;;2.40;;
80778;SDS011;70170;47.856;10.956;2023-07-31T04:53:40;5.93;;;2.63;;
80778;SDS011;70170;47.856;10.956;2023-07-31T04:56:06;9.85;;;2.05;;
80778;SDS011;70170;47.856;10.956;2023-07-31T04:58:31;4.13;;;1.98;;
80778;SDS011;70170;47.856;10.956;2023-07-31T05:00:57;3.72;;;2.08;;
80778;SDS011;70170;47.856;10.956;2023-07-31T05:03:22;3.95;;;1.98;;
80778;SDS011;70170;47.856;10.956;2023-07-31T05:05:47;3.13;;;2.17;;
80778;SDS011;70170;47.856;10.956;2023-07-31T05:08:13;4.82;;;1.88;;
80778;SDS011;70170;47.856;10.956;2023-07-31T05:10:38;2.78;;;1.90;;
80778;SDS011;70170;47.856;10.956;2023-07-31T05:13:03;6.05;;;2.70;;
80778;SDS011;70170;47.856;10.956;2023-07-31T05:15:29;5.00;;;2.00;;
80778;SDS011;70170;47.856;10.956;2023-07-31T05:17:54;5.57;;;2.00;;
80778;SDS011;70170;47.856;10.956;2023-07-31T05:20:20;3.78;;;2.25;;
80778;SDS011;70170;47.856;10.956;2023-07-31T05:22:46;2.53;;;1.80;;
80778;SDS011;70170;47.856;10.956;2023-07-31T05:25:11;3.15;;;2.00;;
80778;SDS011;70170;47.856;10.956;2023-07-31T05:27:37;4.90;;;1.90;;
80778;SDS011;70170;47.856;10.956;2023-07-31T05:30:02;5.38;;;1.90;;
80778;SDS011;70170;47.856;10.956;2023-07-31T05:32:28;4.03;;;1.70;;
80778;SDS011;70170;47.856;10.956;2023-07-31T05:34:53;2.10;;;1.90;;
80778;SDS011;70170;47.856;10.956;2023-07-31T05:37:19;2.67;;;1.98;;
80778;SDS011;70170;47.856;10.956;2023-07-31T05:39:44;2.38;;;1.80;;
80778;SDS011;70170;47.856;10.956;2023-07-31T05:42:10;2.60;;;1.70;;
80778;SDS011;70170;47.856;10.956;2023-07-31T05:44:35;3.67;;;1.85;;
80778;SDS011;70170;47.856;10.956;2023-07-31T05:47:00;2.92;;;1.85;;
80778;SDS011;70170;47.856;10.956;2023-07-31T05:49:26;6.13;;;2.03;;
80778;SDS011;70170;47.856;10.956;2023-07-31T05:51:51;3.88;;;2.13;;
80778;SDS011;70170;47.856;10.956;2023-07-31T05:54:16;2.92;;;1.63;;
80778;SDS011;70170;47.856;10.956;2023-07-31T05:56:42;1.80;;;1.70;;
80778;SDS011;70170;47.856;10.956;2023-07-31T05:59:08;5.38;;;1.83;;
80778;SDS011;70170;47.856;10.956;2023-07-31T06:01:34;4.10;;;1.85;;
80778;SDS011;70170;47.856;10.956;2023-07-31T06:04:03;2.92;;;2.00;;
80778;SDS011;70170;47.856;10.956;2023-07-31T06:06:28;2.63;;;1.50;;
80778;SDS011;70170;47.856;10.956;2023-07-31T06:08:53;3.17;;;1.67;;
80778;SDS011;70170;47.856;10.956;2023-07-31T06:11:19;3.10;;;1.70;;
80778;SDS011;70170;47.856;10.956;2023-07-31T06:13:45;4.45;;;1.70;;
80778;SDS011;70170;47.856;10.956;2023-07-31T06:16:13;2.20;;;1.73;;
80778;SDS011;70170;47.856;10.956;2023-07-31T06:18:38;4.80;;;1.95;;
80778;SDS011;70170;47.856;10.956;2023-07-31T06:21:03;4.20;;;1.85;;
80778;SDS011;70170;47.856;10.956;2023-07-31T06:23:28;3.47;;;1.80;;
80778;SDS011;70170;47.856;10.956;2023-07-31T06:25:54;3.35;;;1.83;;
80778;SDS011;70170;47.856;10.956;2023-07-31T06:28:19;2.00;;;1.58;;
80778;SDS011;70170;47.856;10.956;2023-07-31T06:30:44;3.97;;;1.80;;
80778;SDS011;70170;47.856;10.956;2023-07-31T06:33:10;5.28;;;2.05;;
80778;SDS011;70170;47.856;10.956;2023-07-31T06:35:35;6.63;;;2.10;;
80778;SDS011;70170;47.856;10.956;2023-07-31T06:38:00;4.32;;;1.75;;
80778;SDS011;70170;47.856;10.956;2023-07-31T06:40:27;4.50;;;2.00;;
80778;SDS011;70170;47.856;10.956;2023-07-31T06:42:52;2.22;;;1.73;;
80778;SDS011;70170;47.856;10.956;2023-07-31T06:45:17;2.50;;;1.90;;
80778;SDS011;70170;47.856;10.956;2023-07-31T06:47:43;2.25;;;1.90;;
80778;SDS011;70170;47.856;10.956;2023-07-31T06:50:08;3.72;;;1.88;;
80778;SDS011;70170;47.856;10.956;2023-07-31T06:52:33;4.28;;;1.67;;
80778;SDS011;70170;47.856;10.956;2023-07-31T06:55:03;5.10;;;2.00;;
80778;SDS011;70170;47.856;10.956;2023-07-31T06:57:40;9.35;;;2.35;;
80778;SDS011;70170;47.856;10.956;2023-07-31T07:00:06;6.00;;;2.00;;
80778;SDS011;70170;47.856;10.956;2023-07-31T07:02:31;2.90;;;1.75;;
80778;SDS011;70170;47.856;10.956;2023-07-31T07:04:57;3.28;;;1.92;;
80778;SDS011;70170;47.856;10.956;2023-07-31T07:07:22;4.70;;;1.70;;
80778;SDS011;70170;47.856;10.956;2023-07-31T07:09:47;1.98;;;1.75;;
80778;SDS011;70170;47.856;10.956;2023-07-31T07:12:13;4.95;;;2.28;;
80778;SDS011;70170;47.856;10.956;2023-07-31T07:14:38;2.50;;;1.95;;
80778;SDS011;70170;47.856;10.956;2023-07-31T07:17:03;5.50;;;1.90;;
80778;SDS011;70170;47.856;10.956;2023-07-31T07:19:29;5.65;;;2.08;;
80778;SDS011;70170;47.856;10.956;2023-07-31T07:21:54;4.60;;;1.58;;
80778;SDS011;70170;47.856;10.956;2023-07-31T07:24:19;5.60;;;1.73;;
80778;SDS011;70170;47.856;10.956;2023-07-31T07:26:45;9.27;;;2.08;;
80778;SDS011;70170;47.856;10.956;2023-07-31T07:29:10;4.40;;;1.75;;
80778;SDS011;70170;47.856;10.956;2023-07-31T07:31:36;3.35;;;1.77;;
80778;SDS011;70170;47.856;10.956;2023-07-31T07:34:01;4.88;;;2.30;;
80778;SDS011;70170;47.856;10.956;2023-07-31T07:36:27;6.20;;;1.65;;
80778;SDS011;70170;47.856;10.956;2023-07-31T07:38:53;5.10;;;1.48;;
80778;SDS011;70170;47.856;10.956;2023-07-31T07:41:18;6.13;;;1.77;;
80778;SDS011;70170;47.856;10.956;2023-07-31T07:43:43;3.63;;;1.90;;
80778;SDS011;70170;47.856;10.956;2023-07-31T07:46:09;1.90;;;1.20;;
80778;SDS011;70170;47.856;10.956;2023-07-31T07:48:34;5.10;;;1.67;;
80778;SDS011;70170;47.856;10.956;2023-07-31T07:50:59;1.52;;;1.40;;
80778;SDS011;70170;47.856;10.956;2023-07-31T07:53:24;2.20;;;1.55;;
80778;SDS011;70170;47.856;10.956;2023-07-31T07:55:50;3.97;;;1.70;;
80778;SDS011;70170;47.856;10.956;2023-07-31T07:58:15;2.45;;;1.42;;
80778;SDS011;70170;47.856;10.956;2023-07-31T08:00:40;3.80;;;1.98;;
80778;SDS011;70170;47.856;10.956;2023-07-31T08:03:05;2.85;;;1.50;;
80778;SDS011;70170;47.856;10.956;2023-07-31T08:05:31;5.93;;;1.98;;
80778;SDS011;70170;47.856;10.956;2023-07-31T08:07:59;4.07;;;1.38;;
80778;SDS011;70170;47.856;10.956;2023-07-31T08:10:24;6.50;;;1.80;;
80778;SDS011;70170;47.856;10.956;2023-07-31T08:12:49;4.70;;;1.42;;
80778;SDS011;70170;47.856;10.956;2023-07-31T08:15:15;3.30;;;1.88;;
80778;SDS011;70170;47.856;10.956;2023-07-31T08:17:40;4.13;;;1.73;;
80778;SDS011;70170;47.856;10.956;2023-07-31T08:20:05;4.93;;;1.58;;
80778;SDS011;70170;47.856;10.956;2023-07-31T08:22:31;8.65;;;2.00;;
80778;SDS011;70170;47.856;10.956;2023-07-31T08:24:57;4.18;;;1.60;;
80778;SDS011;70170;47.856;10.956;2023-07-31T08:27:22;4.88;;;2.00;;
80778;SDS011;70170;47.856;10.956;2023-07-31T08:29:47;6.05;;;1.90;;
80778;SDS011;70170;47.856;10.956;2023-07-31T08:32:13;3.22;;;1.77;;
80778;SDS011;70170;47.856;10.956;2023-07-31T08:34:38;2.03;;;1.45;;
80778;SDS011;70170;47.856;10.956;2023-07-31T08:37:03;2.55;;;1.50;;
80778;SDS011;70170;47.856;10.956;2023-07-31T08:39:28;6.50;;;1.70;;
80778;SDS011;70170;47.856;10.956;2023-07-31T08:41:57;4.32;;;1.80;;
80778;SDS011;70170;47.856;10.956;2023-07-31T08:44:24;3.08;;;1.80;;
80778;SDS011;70170;47.856;10.956;2023-07-31T08:46:50;9.10;;;1.80;;
80778;SDS011;70170;47.856;10.956;2023-07-31T08:49:15;5.28;;;1.77;;
80778;SDS011;70170;47.856;10.956;2023-07-31T08:51:45;4.15;;;2.25;;
80778;SDS011;70170;47.856;10.956;2023-07-31T08:54:11;5.07;;;1.67;;
80778;SDS011;70170;47.856;10.956;2023-07-31T08:56:37;3.88;;;1.40;;
80778;SDS011;70170;47.856;10.956;2023-07-31T08:59:02;2.88;;;1.65;;
80778;SDS011;70170;47.856;10.956;2023-07-31T09:01:29;3.47;;;1.73;;
80778;SDS011;70170;47.856;10.956;2023-07-31T09:03:56;6.68;;;1.83;;
80778;SDS011;70170;47.856;10.956;2023-07-31T09:06:24;5.93;;;1.85;;
80778;SDS011;70170;47.856;10.956;2023-07-31T09:08:51;5.20;;;1.88;;
80778;SDS011;70170;47.856;10.956;2023-07-31T09:11:17;3.22;;;1.60;;
80778;SDS011;70170;47.856;10.956;2023-07-31T09:13:43;4.07;;;1.73;;
80778;SDS011;70170;47.856;10.956;2023-07-31T09:16:10;12.60;;;1.80;;
80778;SDS011;70170;47.856;10.956;2023-07-31T09:18:52;7.82;;;2.15;;
80778;SDS011;70170;47.856;10.956;2023-07-31T09:21:19;6.60;;;1.70;;
80778;SDS011;70170;47.856;10.956;2023-07-31T09:23:45;4.22;;;1.80;;
80778;SDS011;70170;47.856;10.956;2023-07-31T09:26:28;3.17;;;1.70;;
80778;SDS011;70170;47.856;10.956;2023-07-31T09:29:01;3.08;;;1.80;;
80778;SDS011;70170;47.856;10.956;2023-07-31T09:31:47;1.50;;;1.40;;
80778;SDS011;70170;47.856;10.956;2023-07-31T09:34:12;7.90;;;1.95;;
80778;SDS011;70170;47.856;10.956;2023-07-31T09:36:45;4.10;;;1.70;;
80778;SDS011;70170;47.856;10.956;2023-07-31T09:39:13;2.42;;;1.80;;
80778;SDS011;70170;47.856;10.956;2023-07-31T09:41:41;2.58;;;1.40;;
80778;SDS011;70170;47.856;10.956;2023-07-31T09:44:09;3.90;;;1.85;;
80778;SDS011;70170;47.856;10.956;2023-07-31T09:46:35;2.58;;;1.80;;
80778;SDS011;70170;47.856;10.956;2023-07-31T09:49:03;2.80;;;1.88;;
80778;SDS011;70170;47.856;10.956;2023-07-31T09:51:30;1.60;;;1.50;;
80778;SDS011;70170;47.856;10.956;2023-07-31T09:53:56;5.18;;;2.22;;
80778;SDS011;70170;47.856;10.956;2023-07-31T09:56:21;4.38;;;1.70;;
80778;SDS011;70170;47.856;10.956;2023-07-31T09:58:48;2.90;;;1.77;;
80778;SDS011;70170;47.856;10.956;2023-07-31T10:01:15;8.27;;;1.80;;
80778;SDS011;70170;47.856;10.956;2023-07-31T10:03:40;4.15;;;1.90;;
80778;SDS011;70170;47.856;10.956;2023-07-31T10:06:07;1.85;;;1.70;;
80778;SDS011;70170;47.856;10.956;2023-07-31T10:08:34;4.72;;;1.80;;
80778;SDS011;70170;47.856;10.956;2023-07-31T10:11:02;2.15;;;1.63;;
80778;SDS011;70170;47.856;10.956;2023-07-31T10:13:29;2.17;;;1.70;;
80778;SDS011;70170;47.856;10.956;2023-07-31T10:15:57;2.03;;;1.58;;
80778;SDS011;70170;47.856;10.956;2023-07-31T10:18:24;4.88;;;1.80;;
80778;SDS011;70170;47.856;10.956;2023-07-31T10:20:50;6.93;;;2.08;;
80778;SDS011;70170;47.856;10.956;2023-07-31T10:23:17;3.67;;;1.70;;
80778;SDS011;70170;47.856;10.956;2023-07-31T10:25:43;3.65;;;1.80;;
80778;SDS011;70170;47.856;10.956;2023-07-31T10:28:09;3.13;;;1.90;;
80778;SDS011;70170;47.856;10.956;2023-07-31T10:30:36;3.47;;;2.17;;
80778;SDS011;70170;47.856;10.956;2023-07-31T10:33:03;3.00;;;1.48;;
80778;SDS011;70170;47.856;10.956;2023-07-31T10:35:30;2.65;;;1.80;;
80778;SDS011;70170;47.856;10.956;2023-07-31T10:37:55;6.25;;;1.70;;
80778;SDS011;70170;47.856;10.956;2023-07-31T10:40:34;4.88;;;1.90;;
80778;SDS011;70170;47.856;10.956;2023-07-31T10:43:01;2.70;;;2.00;;
80778;SDS011;70170;47.856;10.956;2023-07-31T10:48:19;1.50;;;1.40;;
80778;SDS011;70170;47.856;10.956;2023-07-31T10:53:47;8.10;;;1.98;;
80778;SDS011;70170;47.856;10.956;2023-07-31T10:56:09;4.00;;;1.90;;
80778;SDS011;70170;47.856;10.956;2023-07-31T10:58:36;2.42;;;1.60;;
80778;SDS011;70170;47.856;10.956;2023-07-31T11:01:02;4.97;;;1.63;;
80778;SDS011;70170;47.856;10.956;2023-07-31T11:03:41;2.50;;;1.95;;
80778;SDS011;70170;47.856;10.956;2023-07-31T11:06:08;6.80;;;1.80;;
80778;SDS011;70170;47.856;10.956;2023-07-31T11:08:35;2.60;;;1.73;;
80778;SDS011;70170;47.856;10.956;2023-07-31T11:11:07;2.58;;;1.67;;
80778;SDS011;70170;47.856;10.956;2023-07-31T11:13:34;2.42;;;1.65;;
80778;SDS011;70170;47.856;10.956;2023-07-31T11:16:04;3.10;;;1.77;;
80778;SDS011;70170;47.856;10.956;2023-07-31T11:18:29;5.03;;;1.83;;
80778;SDS011;70170;47.856;10.956;2023-07-31T11:20:54;3.20;;;1.55;;
80778;SDS011;70170;47.856;10.956;2023-07-31T11:23:21;3.40;;;1.73;;
80778;SDS011;70170;47.856;10.956;2023-07-31T11:25:47;4.50;;;2.22;;
80778;SDS011;70170;47.856;10.956;2023-07-31T11:28:13;2.70;;;1.95;;
80778;SDS011;70170;47.856;10.956;2023-07-31T11:30:40;1.73;;;1.50;;
80778;SDS011;70170;47.856;10.956;2023-07-31T11:33:07;1.98;;;1.60;;
80778;SDS011;70170;47.856;10.956;2023-07-31T11:35:34;3.55;;;1.73;;
80778;SDS011;70170;47.856;10.956;2023-07-31T11:38:01;1.80;;;1.70;;
80778;SDS011;70170;47.856;10.956;2023-07-31T11:40:27;2.78;;;1.50;;
80778;SDS011;70170;47.856;10.956;2023-07-31T11:42:57;3.65;;;1.83;;
80778;SDS011;70170;47.856;10.956;2023-07-31T11:45:29;1.65;;;1.55;;
80778;SDS011;70170;47.856;10.956;2023-07-31T11:47:55;2.85;;;1.85;;
80778;SDS011;70170;47.856;10.956;2023-07-31T11:50:22;2.05;;;1.80;;
80778;SDS011;70170;47.856;10.956;2023-07-31T11:52:50;2.15;;;1.60;;
80778;SDS011;70170;47.856;10.956;2023-07-31T11:55:25;4.18;;;1.73;;
80778;SDS011;70170;47.856;10.956;2023-07-31T11:57:51;4.15;;;1.90;;
80778;SDS011;70170;47.856;10.956;2023-07-31T12:00:18;5.07;;;2.00;;
80778;SDS011;70170;47.856;10.956;2023-07-31T12:02:43;1.70;;;1.60;;
80778;SDS011;70170;47.856;10.956;2023-07-31T12:05:12;3.28;;;1.70;;
80778;SDS011;70170;47.856;10.956;2023-07-31T12:10:09;4.22;;;1.80;;
80778;SDS011;70170;47.856;10.956;2023-07-31T12:12:34;2.38;;;1.70;;
80778;SDS011;70170;47.856;10.956;2023-07-31T12:14:59;3.50;;;1.92;;
80778;SDS011;70170;47.856;10.956;2023-07-31T12:17:24;3.00;;;2.00;;
80778;SDS011;70170;47.856;10.956;2023-07-31T12:19:50;3.45;;;1.83;;
80778;SDS011;70170;47.856;10.956;2023-07-31T12:22:16;1.42;;;1.33;;
80778;SDS011;70170;47.856;10.956;2023-07-31T12:24:44;4.15;;;1.90;;
80778;SDS011;70170;47.856;10.956;2023-07-31T12:27:10;5.88;;;1.70;;
80778;SDS011;70170;47.856;10.956;2023-07-31T12:29:37;1.90;;;1.50;;
80778;SDS011;70170;47.856;10.956;2023-07-31T12:32:03;4.13;;;1.88;;
80778;SDS011;70170;47.856;10.956;2023-07-31T12:34:29;4.93;;;1.80;;
80778;SDS011;70170;47.856;10.956;2023-07-31T12:36:54;1.60;;;1.50;;
80778;SDS011;70170;47.856;10.956;2023-07-31T12:39:19;1.70;;;1.60;;
80778;SDS011;70170;47.856;10.956;2023-07-31T12:41:45;4.63;;;1.95;;
80778;SDS011;70170;47.856;10.956;2023-07-31T12:44:10;1.95;;;1.67;;
80778;SDS011;70170;47.856;10.956;2023-07-31T12:46:36;7.32;;;1.60;;
80778;SDS011;70170;47.856;10.956;2023-07-31T12:49:01;2.33;;;1.50;;
80778;SDS011;70170;47.856;10.956;2023-07-31T12:51:27;3.47;;;1.83;;
80778;SDS011;70170;47.856;10.956;2023-07-31T12:53:52;2.78;;;1.92;;
80778;SDS011;70170;47.856;10.956;2023-07-31T12:56:18;2.17;;;1.70;;
80778;SDS011;70170;47.856;10.956;2023-07-31T12:58:43;1.83;;;1.73;;
80778;SDS011;70170;47.856;10.956;2023-07-31T13:01:08;1.63;;;1.52;;
80778;SDS011;70170;47.856;10.956;2023-07-31T13:03:33;1.52;;;1.40;;
80778;SDS011;70170;47.856;10.956;2023-07-31T13:05:59;9.32;;;1.60;;
80778;SDS011;70170;47.856;10.956;2023-07-31T13:08:24;2.22;;;1.60;;
80778;SDS011;70170;47.856;10.956;2023-07-31T13:10:49;2.92;;;1.50;;
80778;SDS011;70170;47.856;10.956;2023-07-31T13:13:15;1.60;;;1.50;;
80778;SDS011;70170;47.856;10.956;2023-07-31T13:15:40;2.60;;;1.73;;
80778;SDS011;70170;47.856;10.956;2023-07-31T13:18:06;2.75;;;1.63;;
80778;SDS011;70170;47.856;10.956;2023-07-31T13:20:31;8.10;;;1.60;;
80778;SDS011;70170;47.856;10.956;2023-07-31T13:22:56;2.80;;;1.60;;
80778;SDS011;70170;47.856;10.956;2023-07-31T13:25:22;4.45;;;1.80;;
80778;SDS011;70170;47.856;10.956;2023-07-31T13:27:47;3.03;;;1.55;;
80778;SDS011;70170;47.856;10.956;2023-07-31T13:30:12;2.13;;;1.70;;
80778;SDS011;70170;47.856;10.956;2023-07-31T13:32:37;2.15;;;1.65;;
80778;SDS011;70170;47.856;10.956;2023-07-31T13:35:04;3.60;;;1.52;;
80778;SDS011;70170;47.856;10.956;2023-07-31T13:37:33;2.03;;;1.67;;
80778;SDS011;70170;47.856;10.956;2023-07-31T13:39:58;4.90;;;1.60;;
80778;SDS011;70170;47.856;10.956;2023-07-31T13:42:23;3.00;;;1.30;;
80778;SDS011;70170;47.856;10.956;2023-07-31T13:44:49;1.63;;;1.35;;
80778;SDS011;70170;47.856;10.956;2023-07-31T13:47:14;2.58;;;1.40;;
80778;SDS011;70170;47.856;10.956;2023-07-31T13:49:40;1.40;;;1.30;;
80778;SDS011;70170;47.856;10.956;2023-07-31T13:52:06;1.77;;;1.52;;
80778;SDS011;70170;47.856;10.956;2023-07-31T13:54:32;1.65;;;1.45;;
80778;SDS011;70170;47.856;10.956;2023-07-31T13:56:57;1.65;;;1.50;;
80778;SDS011;70170;47.856;10.956;2023-07-31T13:59:22;2.63;;;1.40;;
80778;SDS011;70170;47.856;10.956;2023-07-31T14:01:48;1.60;;;1.50;;
80778;SDS011;70170;47.856;10.956;2023-07-31T14:04:14;4.93;;;1.30;;
80778;SDS011;70170;47.856;10.956;2023-07-31T14:06:40;2.95;;;1.50;;
80778;SDS011;70170;47.856;10.956;2023-07-31T14:09:05;4.63;;;1.40;;
80778;SDS011;70170;47.856;10.956;2023-07-31T14:11:31;3.22;;;1.20;;
80778;SDS011;70170;47.856;10.956;2023-07-31T14:13:57;5.93;;;1.52;;
80778;SDS011;70170;47.856;10.956;2023-07-31T14:16:22;1.20;;;1.20;;
80778;SDS011;70170;47.856;10.956;2023-07-31T14:18:48;0.95;;;0.95;;
80778;SDS011;70170;47.856;10.956;2023-07-31T14:21:13;1.00;;;1.00;;
80778;SDS011;70170;47.856;10.956;2023-07-31T14:23:39;1.30;;;1.20;;
80778;SDS011;70170;47.856;10.956;2023-07-31T14:26:04;2.90;;;1.17;;
80778;SDS011;70170;47.856;10.956;2023-07-31T14:28:30;2.65;;;1.20;;
80778;SDS011;70170;47.856;10.956;2023-07-31T14:30:55;1.20;;;1.20;;
80778;SDS011;70170;47.856;10.956;2023-07-31T14:33:21;1.88;;;1.42;;
80778;SDS011;70170;47.856;10.956;2023-07-31T14:35:46;1.65;;;1.52;;
80778;SDS011;70170;47.856;10.956;2023-07-31T14:38:11;1.30;;;1.20;;
80778;SDS011;70170;47.856;10.956;2023-07-31T14:40:37;3.05;;;1.60;;